Time,TemperatureF,DewpointF,PressureIn,WindDirection,WindDirectionDegrees,WindSpeedMPH,WindSpeedGustMPH,Humidity,HourlyPrecipIn,Conditions,Clouds,dailyrainin,SoftwareType,DateUTC
2013-04-22 00:00:00,49.6,25.0,30.00,NE,55,1.0,3.0,38,0.00,,,0.00,Wunderground v.1.15,2013-04-22 06:00:00,
2013-04-22 00:02:00,49.6,25.6,29.99,NE,53,1.0,3.0,39,0.00,,,0.00,Wunderground v.1.15,2013-04-22 06:02:00,
2013-04-22 00:08:00,49.6,24.4,29.99,NNW,344,1.0,5.0,37,0.00,,,0.00,Wunderground v.1.15,2013-04-22 06:08:00,
2013-04-22 00:10:00,49.8,24.5,29.99,NW,318,1.0,1.0,37,0.00,,,0.00,Wunderground v.1.15,2013-04-22 06:10:00,
2013-04-22 00:14:00,50.4,21.6,29.99,SSW,201,2.0,4.0,32,0.00,,,0.00,Wunderground v.1.15,2013-04-22 06:14:00,
2013-04-22 00:16:00,50.8,23.4,30.00,SSW,201,2.0,4.0,34,0.00,,,0.00,Wunderground v.1.15,2013-04-22 06:16:00,
2013-04-22 00:18:00,51.0,24.3,30.00,SSW,201,2.0,4.0,35,0.00,,,0.00,Wunderground v.1.15,2013-04-22 06:18:00,
2013-04-22 00:20:00,51.0,23.6,30.00,SSW,200,2.0,2.0,34,0.00,,,0.00,Wunderground v.1.15,2013-04-22 06:20:00,
2013-04-22 00:22:00,51.1,23.0,30.00,SSW,201,2.0,3.0,33,0.00,,,0.00,Wunderground v.1.15,2013-04-22 06:22:00,
2013-04-22 00:24:00,51.3,23.1,30.00,NE,46,1.0,3.0,33,0.00,,,0.00,Wunderground v.1.15,2013-04-22 06:24:00,
2013-04-22 00:28:00,51.6,24.1,30.00,NNE,33,1.0,3.0,34,0.00,,,0.00,Wunderground v.1.15,2013-04-22 06:28:00,
2013-04-22 00:30:00,51.6,24.1,30.00,SE,138,1.0,1.0,34,0.00,,,0.00,Wunderground v.1.15,2013-04-22 06:30:00,
2013-04-22 00:32:00,51.6,24.1,29.99,SE,140,1.0,1.0,34,0.00,,,0.00,Wunderground v.1.15,2013-04-22 06:32:00,
2013-04-22 00:34:00,51.6,22.7,29.99,SE,140,1.0,1.0,32,0.00,,,0.00,Wunderground v.1.15,2013-04-22 06:34:00,
2013-04-22 00:38:00,51.9,23.7,29.99,SE,140,1.0,1.0,33,0.00,,,0.00,Wunderground v.1.15,2013-04-22 06:38:00,
2013-04-22 00:40:00,52.0,23.0,29.99,SE,140,1.0,1.0,32,0.00,,,0.00,Wunderground v.1.15,2013-04-22 06:40:00,
2013-04-22 00:44:00,52.3,22.5,29.99,SE,140,1.0,1.0,31,0.00,,,0.00,Wunderground v.1.15,2013-04-22 06:44:00,
2013-04-22 00:46:00,52.3,23.3,29.99,SE,140,0.0,1.0,32,0.00,,,0.00,Wunderground v.1.15,2013-04-22 06:46:00,
2013-04-22 00:52:00,52.5,23.5,29.99,SE,140,0.0,0.0,32,0.00,,,0.00,Wunderground v.1.15,2013-04-22 06:52:00,
2013-04-22 00:54:00,52.5,23.5,29.99,SE,139,0.0,0.0,32,0.00,,,0.00,Wunderground v.1.15,2013-04-22 06:54:00,
2013-04-22 01:00:00,52.3,23.3,30.00,SE,140,0.0,0.0,32,0.00,,,0.00,Wunderground v.1.15,2013-04-22 07:00:00,
2013-04-22 01:02:00,52.3,23.3,30.00,SE,139,0.0,0.0,32,0.00,,,0.00,Wunderground v.1.15,2013-04-22 07:02:00,
2013-04-22 01:06:00,52.2,23.9,30.00,SE,140,0.0,0.0,33,0.00,,,0.00,Wunderground v.1.15,2013-04-22 07:06:00,
2013-04-22 01:08:00,52.2,23.2,30.00,SE,140,0.0,0.0,32,0.00,,,0.00,Wunderground v.1.15,2013-04-22 07:08:00,
2013-04-22 01:10:00,52.3,22.5,30.00,SE,140,0.0,0.0,31,0.00,,,0.00,Wunderground v.1.15,2013-04-22 07:10:00,
2013-04-22 01:12:00,52.5,23.5,30.00,NNE,17,0.0,3.0,32,0.00,,,0.00,Wunderground v.1.15,2013-04-22 07:12:00,
2013-04-22 01:14:00,52.8,23.7,30.00,North,11,1.0,3.0,32,0.00,,,0.00,Wunderground v.1.15,2013-04-22 07:14:00,
2013-04-22 01:16:00,52.9,22.3,29.96,NW,316,1.0,3.0,30,0.00,,,0.00,Wunderground v.1.15,2013-04-22 07:16:00,
2013-04-22 01:22:00,53.6,23.7,29.96,NNE,24,2.0,2.0,31,0.00,,,0.00,Wunderground v.1.15,2013-04-22 07:22:00,
2013-04-22 01:24:00,53.8,23.1,29.96,ENE,60,2.0,2.0,30,0.00,,,0.00,Wunderground v.1.15,2013-04-22 07:24:00,
2013-04-22 01:26:00,53.9,22.3,29.96,ENE,57,2.0,2.0,29,0.00,,,0.00,Wunderground v.1.15,2013-04-22 07:26:00,
2013-04-22 01:30:00,53.9,23.9,29.93,ENE,59,1.0,1.0,31,0.00,,,0.00,Wunderground v.1.15,2013-04-22 07:30:00,
2013-04-22 01:32:00,53.8,23.1,29.93,ENE,60,1.0,1.0,30,0.00,,,0.00,Wunderground v.1.15,2013-04-22 07:32:00,
2013-04-22 01:34:00,53.8,23.8,29.93,ENE,59,0.0,1.0,31,0.00,,,0.00,Wunderground v.1.15,2013-04-22 07:34:00,
2013-04-22 01:38:00,53.6,23.7,29.93,ENE,60,0.0,1.0,31,0.00,,,0.00,Wunderground v.1.15,2013-04-22 07:38:00,
2013-04-22 01:40:00,53.6,23.7,29.93,ENE,59,0.0,0.0,31,0.00,,,0.00,Wunderground v.1.15,2013-04-22 07:40:00,
2013-04-22 01:44:00,53.5,23.6,29.93,ENE,59,0.0,2.0,31,0.00,,,0.00,Wunderground v.1.15,2013-04-22 07:44:00,
2013-04-22 01:46:00,53.5,23.6,29.92,ENE,59,0.0,2.0,31,0.00,,,0.00,Wunderground v.1.15,2013-04-22 07:46:00,
2013-04-22 01:48:00,53.5,23.6,29.92,ENE,59,0.0,2.0,31,0.00,,,0.00,Wunderground v.1.15,2013-04-22 07:48:00,
2013-04-22 01:54:00,53.2,24.1,29.92,ENE,59,0.0,0.0,32,0.00,,,0.00,Wunderground v.1.15,2013-04-22 07:54:00,
2013-04-22 01:56:00,53.1,24.7,29.92,ENE,69,0.0,1.0,33,0.00,,,0.00,Wunderground v.1.15,2013-04-22 07:56:00,
2013-04-22 02:00:00,52.9,25.3,29.92,ENE,78,1.0,1.0,34,0.00,,,0.00,Wunderground v.1.15,2013-04-22 08:00:00,
2013-04-22 02:04:00,52.6,25.7,29.92,ENE,78,1.0,2.0,35,0.00,,,0.00,Wunderground v.1.15,2013-04-22 08:04:00,
2013-04-22 02:08:00,52.5,25.6,29.92,ESE,102,1.0,2.0,35,0.00,,,0.00,Wunderground v.1.15,2013-04-22 08:08:00,
2013-04-22 02:10:00,52.3,26.1,29.92,ESE,102,1.0,1.0,36,0.00,,,0.00,Wunderground v.1.15,2013-04-22 08:10:00,
2013-04-22 02:12:00,52.2,26.0,29.92,ESE,103,1.0,1.0,36,0.00,,,0.00,Wunderground v.1.15,2013-04-22 08:12:00,
2013-04-22 02:14:00,52.0,25.8,29.92,ESE,117,1.0,3.0,36,0.00,,,0.00,Wunderground v.1.15,2013-04-22 08:14:00,
2013-04-22 02:16:00,51.9,25.8,29.90,ESE,115,2.0,3.0,36,0.00,,,0.00,Wunderground v.1.15,2013-04-22 08:16:00,
2013-04-22 02:18:00,51.9,26.4,29.90,ESE,118,2.0,3.0,37,0.00,,,0.00,Wunderground v.1.15,2013-04-22 08:18:00,
2013-04-22 02:20:00,51.7,26.2,29.90,ESE,118,2.0,2.0,37,0.00,,,0.00,Wunderground v.1.15,2013-04-22 08:20:00,
2013-04-22 02:26:00,51.3,27.2,29.90,ESE,118,1.0,2.0,39,0.00,,,0.00,Wunderground v.1.15,2013-04-22 08:26:00,
2013-04-22 02:28:00,51.1,27.6,29.90,ESE,119,0.0,2.0,40,0.00,,,0.00,Wunderground v.1.15,2013-04-22 08:28:00,
2013-04-22 02:30:00,51.0,28.1,29.90,ESE,118,0.0,0.0,41,0.00,,,0.00,Wunderground v.1.15,2013-04-22 08:30:00,
2013-04-22 02:32:00,50.8,29.1,29.90,ESE,118,0.0,1.0,43,0.00,,,0.00,Wunderground v.1.15,2013-04-22 08:32:00,
2013-04-22 02:34:00,50.4,29.3,29.90,South,171,1.0,2.0,44,0.00,,,0.00,Wunderground v.1.15,2013-04-22 08:34:00,
2013-04-22 02:38:00,49.9,29.4,29.90,South,171,1.0,2.0,45,0.00,,,0.00,Wunderground v.1.15,2013-04-22 08:38:00,
2013-04-22 02:40:00,49.9,29.4,29.90,South,171,1.0,1.0,45,0.00,,,0.00,Wunderground v.1.15,2013-04-22 08:40:00,
2013-04-22 02:42:00,49.8,29.3,29.90,ESE,110,1.0,1.0,45,0.00,,,0.00,Wunderground v.1.15,2013-04-22 08:42:00,
2013-04-22 02:44:00,49.8,29.3,29.90,ESE,110,1.0,1.0,45,0.00,,,0.00,Wunderground v.1.15,2013-04-22 08:44:00,
2013-04-22 02:46:00,49.8,29.3,29.90,ESE,110,0.0,1.0,45,0.00,,,0.00,Wunderground v.1.15,2013-04-22 08:46:00,
2013-04-22 02:48:00,49.8,29.3,29.90,ESE,110,1.0,1.0,45,0.00,,,0.00,Wunderground v.1.15,2013-04-22 08:48:00,
2013-04-22 02:52:00,49.8,28.7,29.90,ESE,110,1.0,1.0,44,0.00,,,0.00,Wunderground v.1.15,2013-04-22 08:52:00,
2013-04-22 02:54:00,49.9,28.8,29.90,ESE,110,1.0,1.0,44,0.00,,,0.00,Wunderground v.1.15,2013-04-22 08:54:00,
2013-04-22 02:58:00,50.1,28.4,29.90,ESE,117,1.0,3.0,43,0.00,,,0.00,Wunderground v.1.15,2013-04-22 08:58:00,
2013-04-22 03:00:00,50.2,28.5,29.91,ESE,117,1.0,1.0,43,0.00,,,0.00,Wunderground v.1.15,2013-04-22 09:00:00,
2013-04-22 03:04:00,50.4,28.7,29.91,ESE,117,1.0,1.0,43,0.00,,,0.00,Wunderground v.1.15,2013-04-22 09:04:00,
2013-04-22 03:08:00,50.4,28.1,29.91,ESE,117,0.0,2.0,42,0.00,,,0.00,Wunderground v.1.15,2013-04-22 09:08:00,
2013-04-22 03:10:00,50.5,28.2,29.91,ESE,117,0.0,0.0,42,0.00,,,0.00,Wunderground v.1.15,2013-04-22 09:10:00,
2013-04-22 03:12:00,50.5,27.7,29.91,ESE,117,0.0,0.0,41,0.00,,,0.00,Wunderground v.1.15,2013-04-22 09:12:00,
2013-04-22 03:16:00,50.7,27.8,29.90,ESE,117,0.0,0.0,41,0.00,,,0.00,Wunderground v.1.15,2013-04-22 09:16:00,
2013-04-22 03:22:00,50.8,27.3,29.90,ESE,117,0.0,3.0,40,0.00,,,0.00,Wunderground v.1.15,2013-04-22 09:22:00,
2013-04-22 03:24:00,51.0,27.5,29.90,ESE,117,1.0,3.0,40,0.00,,,0.00,Wunderground v.1.15,2013-04-22 09:24:00,
2013-04-22 03:28:00,51.3,26.5,29.90,SSE,155,1.0,3.0,38,0.00,,,0.00,Wunderground v.1.15,2013-04-22 09:28:00,
2013-04-22 03:30:00,51.6,26.1,29.89,ESE,118,1.0,3.0,37,0.00,,,0.00,Wunderground v.1.15,2013-04-22 09:30:00,
2013-04-22 03:32:00,51.7,26.2,29.89,East,89,2.0,4.0,37,0.00,,,0.00,Wunderground v.1.15,2013-04-22 09:32:00,
2013-04-22 03:34:00,51.9,25.8,29.89,East,87,2.0,4.0,36,0.00,,,0.00,Wunderground v.1.15,2013-04-22 09:34:00,
2013-04-22 03:36:00,51.9,26.4,29.89,ESE,106,2.0,5.0,37,0.00,,,0.00,Wunderground v.1.15,2013-04-22 09:36:00,
2013-04-22 03:38:00,51.9,25.8,29.89,ESE,107,2.0,5.0,36,0.00,,,0.00,Wunderground v.1.15,2013-04-22 09:38:00,
2013-04-22 03:40:00,51.9,25.8,29.89,East,100,2.0,5.0,36,0.00,,,0.00,Wunderground v.1.15,2013-04-22 09:40:00,
2013-04-22 03:44:00,52.0,25.8,29.89,ESE,108,1.0,5.0,36,0.00,,,0.00,Wunderground v.1.15,2013-04-22 09:44:00,
2013-04-22 03:46:00,52.2,26.0,29.88,ESE,109,1.0,5.0,36,0.00,,,0.00,Wunderground v.1.15,2013-04-22 09:46:00,
2013-04-22 03:48:00,52.2,25.3,29.88,ESE,109,1.0,5.0,35,0.00,,,0.00,Wunderground v.1.15,2013-04-22 09:48:00,
2013-04-22 03:50:00,52.3,25.4,29.88,ESE,108,1.0,1.0,35,0.00,,,0.00,Wunderground v.1.15,2013-04-22 09:50:00,
2013-04-22 03:52:00,52.3,25.4,29.88,ESE,108,1.0,1.0,35,0.00,,,0.00,Wunderground v.1.15,2013-04-22 09:52:00,
2013-04-22 03:56:00,52.3,25.4,29.88,SE,126,1.0,1.0,35,0.00,,,0.00,Wunderground v.1.15,2013-04-22 09:56:00,
2013-04-22 03:58:00,52.3,25.4,29.88,SE,126,1.0,1.0,35,0.00,,,0.00,Wunderground v.1.15,2013-04-22 09:58:00,
2013-04-22 04:00:00,52.3,25.4,29.88,SE,126,0.0,0.0,35,0.00,,,0.00,Wunderground v.1.15,2013-04-22 10:00:00,
2013-04-22 04:04:00,52.3,25.4,29.88,SE,126,0.0,0.0,35,0.00,,,0.00,Wunderground v.1.15,2013-04-22 10:04:00,
2013-04-22 04:06:00,52.3,25.4,29.88,SE,126,0.0,0.0,35,0.00,,,0.00,Wunderground v.1.15,2013-04-22 10:06:00,
2013-04-22 04:08:00,52.3,25.4,29.88,SE,126,0.0,0.0,35,0.00,,,0.00,Wunderground v.1.15,2013-04-22 10:08:00,
2013-04-22 04:10:00,52.3,25.4,29.88,SE,127,0.0,0.0,35,0.00,,,0.00,Wunderground v.1.15,2013-04-22 10:10:00,
2013-04-22 04:14:00,52.3,25.4,29.88,SE,126,0.0,0.0,35,0.00,,,0.00,Wunderground v.1.15,2013-04-22 10:14:00,
2013-04-22 04:16:00,52.3,25.4,29.87,SE,126,0.0,2.0,35,0.00,,,0.00,Wunderground v.1.15,2013-04-22 10:16:00,
2013-04-22 04:18:00,52.3,25.4,29.87,SE,126,0.0,2.0,35,0.00,,,0.00,Wunderground v.1.15,2013-04-22 10:18:00,
2013-04-22 04:22:00,52.2,25.3,29.87,SE,126,0.0,0.0,35,0.00,,,0.00,Wunderground v.1.15,2013-04-22 10:22:00,
2013-04-22 04:24:00,52.2,25.3,29.87,SE,126,0.0,1.0,35,0.00,,,0.00,Wunderground v.1.15,2013-04-22 10:24:00,
2013-04-22 04:26:00,52.0,26.5,29.87,SE,127,0.0,1.0,37,0.00,,,0.00,Wunderground v.1.15,2013-04-22 10:26:00,
2013-04-22 04:30:00,51.9,27.1,29.87,SE,126,0.0,0.0,38,0.00,,,0.00,Wunderground v.1.15,2013-04-22 10:30:00,
2013-04-22 04:32:00,51.9,26.4,29.87,SSE,165,1.0,1.0,37,0.00,,,0.00,Wunderground v.1.15,2013-04-22 10:32:00,
2013-04-22 04:36:00,51.9,26.4,29.87,SSE,166,0.0,1.0,37,0.00,,,0.00,Wunderground v.1.15,2013-04-22 10:36:00,
2013-04-22 04:38:00,51.9,26.4,29.87,SSE,166,0.0,1.0,37,0.00,,,0.00,Wunderground v.1.15,2013-04-22 10:38:00,
2013-04-22 04:40:00,51.9,25.8,29.87,SSE,165,0.0,0.0,36,0.00,,,0.00,Wunderground v.1.15,2013-04-22 10:40:00,
2013-04-22 04:44:00,51.7,26.9,29.87,SSE,165,0.0,3.0,38,0.00,,,0.00,Wunderground v.1.15,2013-04-22 10:44:00,
2013-04-22 04:46:00,51.7,25.6,29.86,SSE,166,1.0,3.0,36,0.00,,,0.00,Wunderground v.1.15,2013-04-22 10:46:00,
2013-04-22 04:48:00,51.7,25.6,29.86,South,169,1.0,3.0,36,0.00,,,0.00,Wunderground v.1.15,2013-04-22 10:48:00,
2013-04-22 04:50:00,51.9,25.1,29.86,SSE,168,1.0,2.0,35,0.00,,,0.00,Wunderground v.1.15,2013-04-22 10:50:00,
2013-04-22 04:54:00,52.5,25.6,29.86,SW,235,2.0,7.0,35,0.00,,,0.00,Wunderground v.1.15,2013-04-22 10:54:00,
2013-04-22 04:56:00,52.6,25.0,29.86,SW,235,1.0,7.0,34,0.00,,,0.00,Wunderground v.1.15,2013-04-22 10:56:00,
2013-04-22 04:58:00,52.8,25.9,29.86,SW,235,1.0,7.0,35,0.00,,,0.00,Wunderground v.1.15,2013-04-22 10:58:00,
2013-04-22 05:04:00,53.1,26.1,29.85,SW,235,1.0,3.0,35,0.00,,,0.00,Wunderground v.1.15,2013-04-22 11:04:00,
2013-04-22 05:08:00,53.2,25.5,29.85,SW,236,1.0,3.0,34,0.00,,,0.00,Wunderground v.1.15,2013-04-22 11:08:00,
2013-04-22 05:10:00,53.2,26.2,29.85,SW,236,1.0,1.0,35,0.00,,,0.00,Wunderground v.1.15,2013-04-22 11:10:00,
2013-04-22 05:12:00,53.2,25.5,29.85,SW,236,1.0,1.0,34,0.00,,,0.00,Wunderground v.1.15,2013-04-22 11:12:00,
2013-04-22 05:18:00,53.2,26.2,29.84,SW,236,0.0,1.0,35,0.00,,,0.00,Wunderground v.1.15,2013-04-22 11:18:00,
2013-04-22 05:20:00,53.1,26.1,29.84,SW,236,0.0,0.0,35,0.00,,,0.00,Wunderground v.1.15,2013-04-22 11:20:00,
2013-04-22 05:22:00,52.9,26.0,29.84,SW,236,0.0,0.0,35,0.00,,,0.00,Wunderground v.1.15,2013-04-22 11:22:00,
2013-04-22 05:24:00,52.9,26.0,29.84,SW,236,0.0,0.0,35,0.00,,,0.00,Wunderground v.1.15,2013-04-22 11:24:00,
2013-04-22 05:26:00,52.8,25.9,29.84,SW,236,0.0,0.0,35,0.00,,,0.00,Wunderground v.1.15,2013-04-22 11:26:00,
2013-04-22 05:30:00,52.5,25.6,29.84,SW,236,0.0,0.0,35,0.00,,,0.00,Wunderground v.1.15,2013-04-22 11:30:00,
2013-04-22 05:32:00,52.3,25.4,29.84,SW,236,0.0,2.0,35,0.00,,,0.00,Wunderground v.1.15,2013-04-22 11:32:00,
2013-04-22 05:34:00,52.3,25.4,29.84,SW,236,0.0,2.0,35,0.00,,,0.00,Wunderground v.1.15,2013-04-22 11:34:00,
2013-04-22 05:38:00,52.2,26.0,29.84,SW,236,1.0,2.0,36,0.00,,,0.00,Wunderground v.1.15,2013-04-22 11:38:00,
2013-04-22 05:40:00,52.0,25.8,29.84,SW,236,1.0,1.0,36,0.00,,,0.00,Wunderground v.1.15,2013-04-22 11:40:00,
2013-04-22 05:42:00,52.0,25.2,29.84,SW,236,1.0,1.0,35,0.00,,,0.00,Wunderground v.1.15,2013-04-22 11:42:00,
2013-04-22 05:46:00,52.2,25.3,29.83,SW,236,0.0,1.0,35,0.00,,,0.00,Wunderground v.1.15,2013-04-22 11:46:00,
2013-04-22 05:48:00,52.2,25.3,29.83,SW,236,1.0,1.0,35,0.00,,,0.00,Wunderground v.1.15,2013-04-22 11:48:00,
2013-04-22 05:54:00,51.0,28.7,29.83,South,181,1.0,1.0,42,0.00,,,0.00,Wunderground v.1.15,2013-04-22 11:54:00,
2013-04-22 05:56:00,50.4,28.7,29.83,SSE,163,1.0,1.0,43,0.00,,,0.00,Wunderground v.1.15,2013-04-22 11:56:00,
2013-04-22 05:58:00,50.1,29.0,29.83,SSE,164,1.0,3.0,44,0.00,,,0.00,Wunderground v.1.15,2013-04-22 11:58:00,
2013-04-22 06:02:00,49.5,28.5,29.85,NE,47,1.0,3.0,44,0.00,,,0.00,Wunderground v.1.15,2013-04-22 12:02:00,
2013-04-22 06:04:00,49.5,28.5,29.85,NE,49,1.0,3.0,44,0.00,,,0.00,Wunderground v.1.15,2013-04-22 12:04:00,
2013-04-22 06:08:00,49.6,28.6,29.85,East,87,1.0,3.0,44,0.00,,,0.00,Wunderground v.1.15,2013-04-22 12:08:00,
2013-04-22 06:10:00,49.6,28.0,29.85,East,87,1.0,3.0,43,0.00,,,0.00,Wunderground v.1.15,2013-04-22 12:10:00,
2013-04-22 06:12:00,49.8,27.6,29.85,East,87,1.0,1.0,42,0.00,,,0.00,Wunderground v.1.15,2013-04-22 12:12:00,
2013-04-22 06:14:00,49.8,28.2,29.85,East,83,0.0,1.0,43,0.00,,,0.00,Wunderground v.1.15,2013-04-22 12:14:00,
2013-04-22 06:16:00,49.9,28.3,29.87,East,83,0.0,1.0,43,0.00,,,0.00,Wunderground v.1.15,2013-04-22 12:16:00,
2013-04-22 06:20:00,49.9,28.3,29.87,East,83,0.0,1.0,43,0.00,,,0.00,Wunderground v.1.15,2013-04-22 12:20:00,
2013-04-22 06:22:00,49.8,27.6,29.87,East,84,0.0,0.0,42,0.00,,,0.00,Wunderground v.1.15,2013-04-22 12:22:00,
2013-04-22 06:24:00,49.8,27.6,29.87,East,83,0.0,0.0,42,0.00,,,0.00,Wunderground v.1.15,2013-04-22 12:24:00,
2013-04-22 06:28:00,49.8,28.2,29.87,East,83,0.0,0.0,43,0.00,,,0.00,Wunderground v.1.15,2013-04-22 12:28:00,
2013-04-22 06:30:00,49.8,28.2,29.87,East,84,0.0,0.0,43,0.00,,,0.00,Wunderground v.1.15,2013-04-22 12:30:00,
2013-04-22 06:32:00,49.8,28.2,29.87,East,84,0.0,0.0,43,0.00,,,0.00,Wunderground v.1.15,2013-04-22 12:32:00,
2013-04-22 06:36:00,49.6,28.0,29.87,East,83,0.0,0.0,43,0.00,,,0.00,Wunderground v.1.15,2013-04-22 12:36:00,
2013-04-22 06:38:00,49.6,28.0,29.87,East,84,0.0,1.0,43,0.00,,,0.00,Wunderground v.1.15,2013-04-22 12:38:00,
2013-04-22 06:42:00,49.6,28.0,29.87,East,83,0.0,1.0,43,0.00,,,0.00,Wunderground v.1.15,2013-04-22 12:42:00,
2013-04-22 06:44:00,49.6,28.0,29.87,East,84,0.0,1.0,43,0.00,,,0.00,Wunderground v.1.15,2013-04-22 12:44:00,
2013-04-22 06:46:00,49.6,28.0,29.87,East,83,1.0,1.0,43,0.00,,,0.00,Wunderground v.1.15,2013-04-22 12:46:00,
2013-04-22 06:48:00,49.6,28.0,29.87,East,84,1.0,1.0,43,0.00,,,0.00,Wunderground v.1.15,2013-04-22 12:48:00,
2013-04-22 06:52:00,49.6,28.0,29.87,East,83,0.0,0.0,43,0.00,,,0.00,Wunderground v.1.15,2013-04-22 12:52:00,
2013-04-22 06:54:00,49.6,28.0,29.87,East,83,0.0,0.0,43,0.00,,,0.00,Wunderground v.1.15,2013-04-22 12:54:00,
2013-04-22 06:56:00,49.6,28.0,29.87,East,83,0.0,0.0,43,0.00,,,0.00,Wunderground v.1.15,2013-04-22 12:56:00,
2013-04-22 07:00:00,49.6,29.1,29.87,East,83,0.0,0.0,45,0.00,,,0.00,Wunderground v.1.15,2013-04-22 13:00:00,
2013-04-22 07:02:00,49.6,28.6,29.87,East,84,0.0,0.0,44,0.00,,,0.00,Wunderground v.1.15,2013-04-22 13:02:00,
2013-04-22 07:04:00,49.5,29.0,29.87,East,84,0.0,0.0,45,0.00,,,0.00,Wunderground v.1.15,2013-04-22 13:04:00,
2013-04-22 07:10:00,49.5,29.0,29.87,East,84,0.0,0.0,45,0.00,,,0.00,Wunderground v.1.15,2013-04-22 13:10:00,
2013-04-22 07:12:00,49.5,29.0,29.87,East,84,0.0,0.0,45,0.00,,,0.00,Wunderground v.1.15,2013-04-22 13:12:00,
2013-04-22 07:16:00,49.4,30.5,29.90,East,84,0.0,0.0,48,0.00,,,0.00,Wunderground v.1.15,2013-04-22 13:16:00,
2013-04-22 07:18:00,49.2,30.3,29.90,East,83,0.0,0.0,48,0.00,,,0.00,Wunderground v.1.15,2013-04-22 13:18:00,
2013-04-22 07:20:00,49.2,29.8,29.90,East,83,0.0,0.0,47,0.00,,,0.00,Wunderground v.1.15,2013-04-22 13:20:00,
2013-04-22 07:24:00,48.9,29.5,29.90,East,83,0.0,0.0,47,0.00,,,0.00,Wunderground v.1.15,2013-04-22 13:24:00,
2013-04-22 07:26:00,48.9,29.5,29.90,East,84,0.0,0.0,47,0.00,,,0.00,Wunderground v.1.15,2013-04-22 13:26:00,
2013-04-22 07:28:00,48.9,29.0,29.90,East,84,0.0,0.0,46,0.00,,,0.00,Wunderground v.1.15,2013-04-22 13:28:00,
2013-04-22 07:32:00,48.8,28.9,29.90,East,83,0.0,0.0,46,0.00,,,0.00,Wunderground v.1.15,2013-04-22 13:32:00,
2013-04-22 07:34:00,48.8,28.9,29.90,East,83,0.0,0.0,46,0.00,,,0.00,Wunderground v.1.15,2013-04-22 13:34:00,
2013-04-22 07:36:00,48.8,28.4,29.90,East,84,0.0,0.0,45,0.00,,,0.00,Wunderground v.1.15,2013-04-22 13:36:00,
2013-04-22 07:38:00,48.6,28.7,29.90,East,83,0.0,0.0,46,0.00,,,0.00,Wunderground v.1.15,2013-04-22 13:38:00,
2013-04-22 07:40:00,48.6,28.7,29.90,East,83,0.0,0.0,46,0.00,,,0.00,Wunderground v.1.15,2013-04-22 13:40:00,
2013-04-22 07:42:00,48.6,28.7,29.90,East,84,0.0,0.0,46,0.00,,,0.00,Wunderground v.1.15,2013-04-22 13:42:00,
2013-04-22 07:46:00,48.5,29.7,29.90,East,84,0.0,0.0,48,0.00,,,0.00,Wunderground v.1.15,2013-04-22 13:46:00,
2013-04-22 07:48:00,48.5,29.2,29.90,East,84,0.0,0.0,47,0.00,,,0.00,Wunderground v.1.15,2013-04-22 13:48:00,
2013-04-22 07:50:00,48.5,29.2,29.90,East,83,0.0,0.0,47,0.00,,,0.00,Wunderground v.1.15,2013-04-22 13:50:00,
2013-04-22 07:56:00,48.3,30.0,29.90,East,83,0.0,0.0,49,0.00,,,0.00,Wunderground v.1.15,2013-04-22 13:56:00,
2013-04-22 07:58:00,48.3,29.0,29.90,East,84,0.0,0.0,47,0.00,,,0.00,Wunderground v.1.15,2013-04-22 13:58:00,
2013-04-22 08:02:00,48.3,30.0,29.91,East,83,0.0,0.0,49,0.00,,,0.00,Wunderground v.1.15,2013-04-22 14:02:00,
2013-04-22 08:04:00,48.3,30.5,29.91,East,84,0.0,0.0,50,0.00,,,0.00,Wunderground v.1.15,2013-04-22 14:04:00,
2013-04-22 08:06:00,48.3,30.5,29.91,East,84,0.0,0.0,50,0.00,,,0.00,Wunderground v.1.15,2013-04-22 14:06:00,
2013-04-22 08:08:00,48.3,30.5,29.91,East,84,0.0,0.0,50,0.00,,,0.00,Wunderground v.1.15,2013-04-22 14:08:00,
2013-04-22 08:10:00,48.6,29.8,29.91,East,84,0.0,0.0,48,0.00,,,0.00,Wunderground v.1.15,2013-04-22 14:10:00,
2013-04-22 08:12:00,48.9,29.0,29.91,East,83,0.0,0.0,46,0.00,,,0.00,Wunderground v.1.15,2013-04-22 14:12:00,
2013-04-22 08:16:00,49.6,29.6,29.94,East,84,0.0,0.0,46,0.00,,,0.00,Wunderground v.1.15,2013-04-22 14:16:00,
2013-04-22 08:20:00,50.5,27.7,29.94,East,84,0.0,0.0,41,0.00,,,0.00,Wunderground v.1.15,2013-04-22 14:20:00,
2013-04-22 08:24:00,51.9,27.1,29.94,East,83,0.0,0.0,38,0.00,,,0.00,Wunderground v.1.15,2013-04-22 14:24:00,
2013-04-22 08:26:00,52.2,26.0,29.94,East,84,0.0,0.0,36,0.00,,,0.00,Wunderground v.1.15,2013-04-22 14:26:00,
2013-04-22 08:30:00,53.2,26.2,29.94,East,83,0.0,0.0,35,0.00,,,0.00,Wunderground v.1.15,2013-04-22 14:30:00,
2013-04-22 08:32:00,53.6,25.9,29.92,East,84,0.0,0.0,34,0.00,,,0.00,Wunderground v.1.15,2013-04-22 14:32:00,
2013-04-22 08:34:00,54.2,26.4,29.92,East,83,0.0,0.0,34,0.00,,,0.00,Wunderground v.1.15,2013-04-22 14:34:00,
2013-04-22 08:38:00,54.7,26.1,29.92,East,83,0.0,2.0,33,0.00,,,0.00,Wunderground v.1.15,2013-04-22 14:38:00,
2013-04-22 08:40:00,55.0,25.6,29.92,East,83,0.0,0.0,32,0.00,,,0.00,Wunderground v.1.15,2013-04-22 14:40:00,
2013-04-22 08:42:00,55.4,26.0,29.92,East,83,0.0,0.0,32,0.00,,,0.00,Wunderground v.1.15,2013-04-22 14:42:00,
2013-04-22 08:44:00,55.7,27.0,29.92,East,84,0.0,1.0,33,0.00,,,0.00,Wunderground v.1.15,2013-04-22 14:44:00,
2013-04-22 08:46:00,55.7,27.0,29.90,East,80,1.0,3.0,33,0.00,,,0.00,Wunderground v.1.15,2013-04-22 14:46:00,
2013-04-22 08:48:00,55.6,26.9,29.90,East,79,1.0,3.0,33,0.00,,,0.00,Wunderground v.1.15,2013-04-22 14:48:00,
2013-04-22 08:52:00,55.1,26.5,29.90,ENE,72,2.0,2.0,33,0.00,,,0.00,Wunderground v.1.15,2013-04-22 14:52:00,
2013-04-22 08:54:00,55.3,26.7,29.90,ENE,72,2.0,2.0,33,0.00,,,0.00,Wunderground v.1.15,2013-04-22 14:54:00,
2013-04-22 08:58:00,55.3,25.9,29.90,NE,40,2.0,3.0,32,0.00,,,0.00,Wunderground v.1.15,2013-04-22 14:58:00,
2013-04-22 09:01:00,55.4,26.0,29.90,NE,36,2.0,3.0,32,0.00,,,0.00,Wunderground v.1.15,2013-04-22 15:01:00,
2013-04-22 09:04:00,55.6,26.2,29.90,NE,36,2.0,3.0,32,0.00,,,0.00,Wunderground v.1.15,2013-04-22 15:04:00,
2013-04-22 09:06:00,55.7,24.7,29.90,NE,35,2.0,4.0,30,0.00,,,0.00,Wunderground v.1.15,2013-04-22 15:06:00,
2013-04-22 09:10:00,56.0,25.0,29.90,NNE,14,2.0,6.0,30,0.00,,,0.00,Wunderground v.1.15,2013-04-22 15:10:00,
2013-04-22 09:14:00,56.2,23.5,29.90,NNE,18,3.0,6.0,28,0.00,,,0.00,Wunderground v.1.15,2013-04-22 15:14:00,
2013-04-22 09:16:00,56.2,25.9,29.93,NNW,328,3.0,6.0,31,0.00,,,0.00,Wunderground v.1.15,2013-04-22 15:16:00,
2013-04-22 09:20:00,56.5,24.6,29.93,North,10,3.0,3.0,29,0.00,,,0.00,Wunderground v.1.15,2013-04-22 15:20:00,
2013-04-22 09:24:00,56.9,24.1,29.93,NW,323,3.0,3.0,28,0.00,,,0.00,Wunderground v.1.15,2013-04-22 15:24:00,
2013-04-22 09:28:00,57.2,24.3,29.93,NW,305,3.0,4.0,28,0.00,,,0.00,Wunderground v.1.15,2013-04-22 15:28:00,
2013-04-22 09:30:00,57.3,23.6,29.92,NW,308,3.0,9.0,27,0.00,,,0.00,Wunderground v.1.15,2013-04-22 15:30:00,
2013-04-22 09:32:00,57.3,23.6,29.92,NW,314,3.0,9.0,27,0.00,,,0.00,Wunderground v.1.15,2013-04-22 15:32:00,
2013-04-22 09:34:00,57.3,23.6,29.92,NNW,330,4.0,9.0,27,0.00,,,0.00,Wunderground v.1.15,2013-04-22 15:34:00,
2013-04-22 09:36:00,57.2,24.3,29.92,NNW,336,4.0,9.0,28,0.00,,,0.00,Wunderground v.1.15,2013-04-22 15:36:00,
2013-04-22 09:40:00,57.0,24.2,29.92,North,5,4.0,7.0,28,0.00,,,0.00,Wunderground v.1.15,2013-04-22 15:40:00,
2013-04-22 09:44:00,57.0,23.3,29.92,WNW,296,4.0,7.0,27,0.00,,,0.00,Wunderground v.1.15,2013-04-22 15:44:00,
2013-04-22 09:46:00,57.2,23.5,29.92,WNW,295,3.0,7.0,27,0.00,,,0.00,Wunderground v.1.15,2013-04-22 15:46:00,
2013-04-22 09:48:00,57.3,23.6,29.92,NW,311,3.0,7.0,27,0.00,,,0.00,Wunderground v.1.15,2013-04-22 15:48:00,
2013-04-22 09:50:00,57.2,24.3,29.92,NW,313,3.0,6.0,28,0.00,,,0.00,Wunderground v.1.15,2013-04-22 15:50:00,
2013-04-22 09:52:00,57.0,23.3,29.92,NW,310,3.0,6.0,27,0.00,,,0.00,Wunderground v.1.15,2013-04-22 15:52:00,
2013-04-22 09:54:00,56.9,24.1,29.92,NW,304,4.0,6.0,28,0.00,,,0.00,Wunderground v.1.15,2013-04-22 15:54:00,
2013-04-22 09:56:00,56.9,23.2,29.92,NW,304,4.0,6.0,27,0.00,,,0.00,Wunderground v.1.15,2013-04-22 15:56:00,
2013-04-22 09:58:00,57.2,24.3,29.92,NW,306,3.0,8.0,28,0.00,,,0.00,Wunderground v.1.15,2013-04-22 15:58:00,
2013-04-22 10:02:00,57.5,22.8,29.92,NNW,339,3.0,3.0,26,0.00,,,0.00,Wunderground v.1.15,2013-04-22 16:02:00,
2013-04-22 10:04:00,57.6,22.9,29.92,NNW,345,3.0,3.0,26,0.00,,,0.00,Wunderground v.1.15,2013-04-22 16:04:00,
2013-04-22 10:06:00,57.6,23.8,29.92,NNW,333,3.0,3.0,27,0.00,,,0.00,Wunderground v.1.15,2013-04-22 16:06:00,
2013-04-22 10:08:00,57.6,22.9,29.92,NNW,336,3.0,9.0,26,0.00,,,0.00,Wunderground v.1.15,2013-04-22 16:08:00,
2013-04-22 10:10:00,57.5,23.7,29.92,NW,316,4.0,4.0,27,0.00,,,0.00,Wunderground v.1.15,2013-04-22 16:10:00,
2013-04-22 10:12:00,57.5,23.7,29.92,NW,306,4.0,6.0,27,0.00,,,0.00,Wunderground v.1.15,2013-04-22 16:12:00,
2013-04-22 10:16:00,58.0,23.3,29.92,NW,325,5.0,9.0,26,0.00,,,0.00,Wunderground v.1.15,2013-04-22 16:16:00,
2013-04-22 10:18:00,58.1,23.3,29.92,NNE,14,5.0,9.0,26,0.00,,,0.00,Wunderground v.1.15,2013-04-22 16:18:00,
2013-04-22 10:22:00,58.7,22.9,29.92,NNW,340,5.0,11.0,25,0.00,,,0.00,Wunderground v.1.15,2013-04-22 16:22:00,
2013-04-22 10:26:00,58.9,23.1,29.92,NW,323,5.0,11.0,25,0.00,,,0.00,Wunderground v.1.15,2013-04-22 16:26:00,
2013-04-22 10:30:00,59.3,23.4,29.92,NNW,332,5.0,10.0,25,0.00,,,0.00,Wunderground v.1.15,2013-04-22 16:30:00,
2013-04-22 10:32:00,59.0,22.2,29.91,WNW,296,5.0,10.0,24,0.00,,,0.00,Wunderground v.1.15,2013-04-22 16:32:00,
2013-04-22 10:36:00,58.9,23.1,29.91,NNW,329,3.0,10.0,25,0.00,,,0.00,Wunderground v.1.15,2013-04-22 16:36:00,
2013-04-22 10:38:00,58.6,21.9,29.91,WNW,297,3.0,10.0,24,0.00,,,0.00,Wunderground v.1.15,2013-04-22 16:38:00,
2013-04-22 10:40:00,58.4,21.7,29.91,NW,306,3.0,3.0,24,0.00,,,0.00,Wunderground v.1.15,2013-04-22 16:40:00,
2013-04-22 10:44:00,58.4,21.7,29.91,NW,306,2.0,3.0,24,0.00,,,0.00,Wunderground v.1.15,2013-04-22 16:44:00,
2013-04-22 10:46:00,58.4,21.7,29.92,NW,306,3.0,3.0,24,0.00,,,0.00,Wunderground v.1.15,2013-04-22 16:46:00,
2013-04-22 10:48:00,58.9,23.1,29.92,NNE,24,2.0,4.0,25,0.00,,,0.00,Wunderground v.1.15,2013-04-22 16:48:00,
2013-04-22 10:52:00,59.3,20.4,29.92,NW,319,3.0,10.0,22,0.00,,,0.00,Wunderground v.1.15,2013-04-22 16:52:00,
2013-04-22 10:56:00,59.3,22.5,29.92,NNW,327,5.0,12.0,24,0.00,,,0.00,Wunderground v.1.15,2013-04-22 16:56:00,
2013-04-22 10:58:00,59.2,22.4,29.92,NNW,334,6.0,12.0,24,0.00,,,0.00,Wunderground v.1.15,2013-04-22 16:58:00,
2013-04-22 11:04:00,58.9,21.1,29.90,WNW,293,6.0,11.0,23,0.00,,,0.00,Wunderground v.1.15,2013-04-22 17:04:00,
2013-04-22 11:06:00,59.0,21.2,29.90,North,351,6.0,12.0,23,0.00,,,0.00,Wunderground v.1.15,2013-04-22 17:06:00,
2013-04-22 11:10:00,59.5,20.6,29.90,NW,306,7.0,12.0,22,0.00,,,0.00,Wunderground v.1.15,2013-04-22 17:10:00,
2013-04-22 11:12:00,59.8,17.4,29.90,NNW,327,8.0,8.0,19,0.00,,,0.00,Wunderground v.1.15,2013-04-22 17:12:00,
2013-04-22 11:14:00,59.9,17.5,29.90,NW,320,8.0,10.0,19,0.00,,,0.00,Wunderground v.1.15,2013-04-22 17:14:00,
2013-04-22 11:16:00,60.4,19.1,29.87,NW,314,8.0,10.0,20,0.00,,,0.00,Wunderground v.1.15,2013-04-22 17:16:00,
2013-04-22 11:18:00,60.7,22.6,29.87,NNW,335,7.0,10.0,23,0.00,,,0.00,Wunderground v.1.15,2013-04-22 17:18:00,
2013-04-22 11:24:00,60.9,18.3,29.87,NNE,18,6.0,7.0,19,0.00,,,0.00,Wunderground v.1.15,2013-04-22 17:24:00,
2013-04-22 11:26:00,61.0,18.4,29.87,NW,323,5.0,12.0,19,0.00,,,0.00,Wunderground v.1.15,2013-04-22 17:26:00,
2013-04-22 11:28:00,60.9,18.3,29.87,NW,317,6.0,15.0,19,0.00,,,0.00,Wunderground v.1.15,2013-04-22 17:28:00,
2013-04-22 11:30:00,60.5,19.2,29.87,North,350,5.0,15.0,20,0.00,,,0.00,Wunderground v.1.15,2013-04-22 17:30:00,
2013-04-22 11:36:00,60.7,19.3,29.87,NW,307,6.0,6.0,20,0.00,,,0.00,Wunderground v.1.15,2013-04-22 17:36:00,
2013-04-22 11:38:00,61.0,19.6,29.87,West,277,5.0,6.0,20,0.00,,,0.00,Wunderground v.1.15,2013-04-22 17:38:00,
2013-04-22 11:40:00,61.2,19.8,29.87,NW,313,3.0,6.0,20,0.00,,,0.00,Wunderground v.1.15,2013-04-22 17:40:00,
2013-04-22 11:44:00,60.7,18.1,29.87,NW,321,4.0,15.0,19,0.00,,,0.00,Wunderground v.1.15,2013-04-22 17:44:00,
2013-04-22 11:46:00,60.2,16.5,29.87,WNW,300,5.0,15.0,18,0.00,,,0.00,Wunderground v.1.15,2013-04-22 17:46:00,
2013-04-22 11:48:00,60.1,17.6,29.87,NW,316,5.0,15.0,19,0.00,,,0.00,Wunderground v.1.15,2013-04-22 17:48:00,
2013-04-22 11:50:00,59.9,19.8,29.87,WSW,254,6.0,15.0,21,0.00,,,0.00,Wunderground v.1.15,2013-04-22 17:50:00,
2013-04-22 11:52:00,59.9,17.5,29.87,NNW,346,5.0,9.0,19,0.00,,,0.00,Wunderground v.1.15,2013-04-22 17:52:00,
2013-04-22 11:54:00,59.9,16.2,29.87,SW,221,6.0,9.0,18,0.00,,,0.00,Wunderground v.1.15,2013-04-22 17:54:00,
2013-04-22 11:56:00,59.8,18.6,29.87,NW,317,5.0,10.0,20,0.00,,,0.00,Wunderground v.1.15,2013-04-22 17:56:00,
2013-04-22 12:01:00,60.2,18.9,29.86,WNW,301,6.0,6.0,20,0.00,,,0.00,Wunderground v.1.15,2013-04-22 18:01:00,
2013-04-22 12:02:00,60.2,16.5,29.86,NW,304,6.0,6.0,18,0.00,,,0.00,Wunderground v.1.15,2013-04-22 18:02:00,
2013-04-22 12:04:00,60.5,18.0,29.86,NW,323,5.0,6.0,19,0.00,,,0.00,Wunderground v.1.15,2013-04-22 18:04:00,
2013-04-22 12:06:00,61.0,18.4,29.86,WNW,295,4.0,7.0,19,0.00,,,0.00,Wunderground v.1.15,2013-04-22 18:06:00,
2013-04-22 12:08:00,61.3,18.6,29.86,WNW,287,5.0,7.0,19,0.00,,,0.00,Wunderground v.1.15,2013-04-22 18:08:00,
2013-04-22 12:12:00,61.5,17.5,29.86,North,5,5.0,7.0,18,0.00,,,0.00,Wunderground v.1.15,2013-04-22 18:12:00,
2013-04-22 12:14:00,61.8,19.0,29.86,NNE,22,5.0,7.0,19,0.00,,,0.00,Wunderground v.1.15,2013-04-22 18:14:00,
2013-04-22 12:16:00,61.8,17.8,29.83,WNW,294,6.0,7.0,18,0.00,,,0.00,Wunderground v.1.15,2013-04-22 18:16:00,
2013-04-22 12:18:00,61.8,20.3,29.83,NNW,346,5.0,8.0,20,0.00,,,0.00,Wunderground v.1.15,2013-04-22 18:18:00,
2013-04-22 12:22:00,61.6,18.9,29.83,WNW,302,6.0,6.0,19,0.00,,,0.00,Wunderground v.1.15,2013-04-22 18:22:00,
2013-04-22 12:24:00,61.6,18.9,29.83,NNW,327,6.0,6.0,19,0.00,,,0.00,Wunderground v.1.15,2013-04-22 18:24:00,
2013-04-22 12:28:00,61.5,16.2,29.83,NNW,341,6.0,7.0,17,0.00,,,0.00,Wunderground v.1.15,2013-04-22 18:28:00,
2013-04-22 12:30:00,61.5,17.5,29.82,NW,323,5.0,10.0,18,0.00,,,0.00,Wunderground v.1.15,2013-04-22 18:30:00,
2013-04-22 12:32:00,61.5,18.8,29.82,NNW,328,6.0,10.0,19,0.00,,,0.00,Wunderground v.1.15,2013-04-22 18:32:00,
2013-04-22 12:34:00,61.6,18.9,29.82,NW,306,6.0,10.0,19,0.00,,,0.00,Wunderground v.1.15,2013-04-22 18:34:00,
2013-04-22 12:36:00,61.8,17.8,29.82,NW,316,6.0,10.0,18,0.00,,,0.00,Wunderground v.1.15,2013-04-22 18:36:00,
2013-04-22 12:42:00,61.8,16.5,29.82,WNW,298,7.0,12.0,17,0.00,,,0.00,Wunderground v.1.15,2013-04-22 18:42:00,
2013-04-22 12:44:00,61.5,18.8,29.82,NE,42,7.0,12.0,19,0.00,,,0.00,Wunderground v.1.15,2013-04-22 18:44:00,
2013-04-22 12:46:00,61.5,18.8,29.82,NNW,340,7.0,13.0,19,0.00,,,0.00,Wunderground v.1.15,2013-04-22 18:46:00,
2013-04-22 12:48:00,61.6,18.9,29.82,WNW,302,7.0,13.0,19,0.00,,,0.00,Wunderground v.1.15,2013-04-22 18:48:00,
2013-04-22 12:50:00,61.6,18.9,29.82,North,32767,8.0,8.0,19,0.00,,,0.00,Wunderground v.1.15,2013-04-22 18:50:00,
2013-04-22 12:52:00,61.5,18.8,29.82,NNW,344,7.0,8.0,19,0.00,,,0.00,Wunderground v.1.15,2013-04-22 18:52:00,
2013-04-22 12:54:00,61.6,17.6,29.82,NE,44,7.0,8.0,18,0.00,,,0.00,Wunderground v.1.15,2013-04-22 18:54:00,
2013-04-22 12:56:00,61.6,18.9,29.82,NW,323,6.0,8.0,19,0.00,,,0.00,Wunderground v.1.15,2013-04-22 18:56:00,
2013-04-22 13:02:00,62.1,19.3,29.82,West,275,6.0,7.0,19,0.00,,,0.00,Wunderground v.1.15,2013-04-22 19:02:00,
2013-04-22 13:04:00,62.3,19.5,29.82,NNE,24,6.0,7.0,19,0.00,,,0.00,Wunderground v.1.15,2013-04-22 19:04:00,
2013-04-22 13:08:00,62.6,17.1,29.82,NW,316,6.0,12.0,17,0.00,,,0.00,Wunderground v.1.15,2013-04-22 19:08:00,
2013-04-22 13:10:00,62.9,18.7,29.82,NW,313,5.0,12.0,18,0.00,,,0.00,Wunderground v.1.15,2013-04-22 19:10:00,
2013-04-22 13:16:00,62.6,17.1,29.79,NW,304,6.0,10.0,17,0.00,,,0.00,Wunderground v.1.15,2013-04-22 19:16:00,
2013-04-22 13:18:00,62.1,18.0,29.79,NW,324,6.0,10.0,18,0.00,,,0.00,Wunderground v.1.15,2013-04-22 19:18:00,
2013-04-22 13:20:00,62.1,16.7,29.79,NW,325,5.0,10.0,17,0.00,,,0.00,Wunderground v.1.15,2013-04-22 19:20:00,
2013-04-22 13:24:00,62.1,16.7,29.79,NNW,329,5.0,9.0,17,0.00,,,0.00,Wunderground v.1.15,2013-04-22 19:24:00,
2013-04-22 13:26:00,62.0,16.6,29.79,NW,313,5.0,9.0,17,0.00,,,0.00,Wunderground v.1.15,2013-04-22 19:26:00,
2013-04-22 13:30:00,61.8,17.8,29.79,North,32767,6.0,9.0,18,0.00,,,0.00,Wunderground v.1.15,2013-04-22 19:30:00,
2013-04-22 13:32:00,61.8,16.5,29.80,NW,326,7.0,8.0,17,0.00,,,0.00,Wunderground v.1.15,2013-04-22 19:32:00,
2013-04-22 13:34:00,61.6,17.6,29.80,NNW,331,8.0,8.0,18,0.00,,,0.00,Wunderground v.1.15,2013-04-22 19:34:00,
2013-04-22 13:38:00,62.0,18.0,29.80,NNW,341,8.0,8.0,18,0.00,,,0.00,Wunderground v.1.15,2013-04-22 19:38:00,
2013-04-22 13:40:00,62.3,16.9,29.80,WNW,300,7.0,8.0,17,0.00,,,0.00,Wunderground v.1.15,2013-04-22 19:40:00,
2013-04-22 13:42:00,62.4,17.0,29.80,NW,312,7.0,9.0,17,0.00,,,0.00,Wunderground v.1.15,2013-04-22 19:42:00,
2013-04-22 13:46:00,62.7,17.2,29.78,NNE,28,7.0,11.0,17,0.00,,,0.00,Wunderground v.1.15,2013-04-22 19:46:00,
2013-04-22 13:48:00,62.7,17.2,29.78,NNE,19,7.0,11.0,17,0.00,,,0.00,Wunderground v.1.15,2013-04-22 19:48:00,
2013-04-22 13:52:00,62.9,16.0,29.78,North,355,9.0,9.0,16,0.00,,,0.00,Wunderground v.1.15,2013-04-22 19:52:00,
2013-04-22 13:54:00,63.1,16.1,29.78,North,32767,8.0,9.0,16,0.00,,,0.00,Wunderground v.1.15,2013-04-22 19:54:00,
2013-04-22 13:56:00,63.4,16.4,29.78,NNW,348,8.0,9.0,16,0.00,,,0.00,Wunderground v.1.15,2013-04-22 19:56:00,
2013-04-22 14:00:00,63.5,15.0,29.78,NNE,16,7.0,7.0,15,0.00,,,0.00,Wunderground v.1.15,2013-04-22 20:00:00,
2013-04-22 14:06:00,63.9,15.3,29.78,NW,320,4.0,7.0,15,0.00,,,0.00,Wunderground v.1.15,2013-04-22 20:06:00,
2013-04-22 14:08:00,63.9,16.8,29.78,ENE,57,4.0,7.0,16,0.00,,,0.00,Wunderground v.1.15,2013-04-22 20:08:00,
2013-04-22 14:10:00,63.9,18.2,29.78,North,5,3.0,6.0,17,0.00,,,0.00,Wunderground v.1.15,2013-04-22 20:10:00,
2013-04-22 14:14:00,64.0,18.3,29.78,NE,49,4.0,6.0,17,0.00,,,0.00,Wunderground v.1.15,2013-04-22 20:14:00,
2013-04-22 14:16:00,64.5,18.7,29.77,NNE,15,3.0,6.0,17,0.00,,,0.00,Wunderground v.1.15,2013-04-22 20:16:00,
2013-04-22 14:20:00,65.2,16.3,29.77,SW,223,3.0,5.0,15,0.00,,,0.00,Wunderground v.1.15,2013-04-22 20:20:00,
2013-04-22 14:22:00,65.5,15.0,29.77,NNW,327,3.0,11.0,14,0.00,,,0.00,Wunderground v.1.15,2013-04-22 20:22:00,
2013-04-22 14:26:00,66.4,14.0,29.77,NNW,346,4.0,12.0,13,0.00,,,0.00,Wunderground v.1.15,2013-04-22 20:26:00,
2013-04-22 14:28:00,66.8,10.5,29.77,WNW,289,4.0,12.0,11,0.00,,,0.00,Wunderground v.1.15,2013-04-22 20:28:00,
2013-04-22 14:30:00,66.9,10.6,29.76,WSW,247,5.0,5.0,11,0.00,,,0.00,Wunderground v.1.15,2013-04-22 20:30:00,
2013-04-22 14:32:00,66.6,12.3,29.76,WSW,251,5.0,5.0,12,0.00,,,0.00,Wunderground v.1.15,2013-04-22 20:32:00,
2013-04-22 14:38:00,66.4,10.2,29.76,NW,312,7.0,16.0,11,0.00,,,0.00,Wunderground v.1.15,2013-04-22 20:38:00,
2013-04-22 14:40:00,66.6,14.2,29.76,WNW,293,7.0,7.0,13,0.00,,,0.00,Wunderground v.1.15,2013-04-22 20:40:00,
2013-04-22 14:42:00,66.4,14.0,29.76,NNW,344,6.0,13.0,13,0.00,,,0.00,Wunderground v.1.15,2013-04-22 20:42:00,
2013-04-22 14:46:00,66.0,13.7,29.75,WNW,302,7.0,15.0,13,0.00,,,0.00,Wunderground v.1.15,2013-04-22 20:46:00,
2013-04-22 14:48:00,65.8,9.7,29.75,WNW,301,6.0,15.0,11,0.00,,,0.00,Wunderground v.1.15,2013-04-22 20:48:00,
2013-04-22 14:52:00,66.0,13.7,29.75,West,263,6.0,6.0,13,0.00,,,0.00,Wunderground v.1.15,2013-04-22 20:52:00,
2013-04-22 14:56:00,66.4,12.2,29.75,WSW,255,6.0,15.0,12,0.00,,,0.00,Wunderground v.1.15,2013-04-22 20:56:00,
2013-04-22 14:58:00,66.4,12.2,29.75,SSW,209,7.0,15.0,12,0.00,,,0.00,Wunderground v.1.15,2013-04-22 20:58:00,
2013-04-22 15:00:00,66.3,10.1,29.75,WNW,300,8.0,9.0,11,0.00,,,0.00,Wunderground v.1.15,2013-04-22 21:00:00,
2013-04-22 15:02:00,66.3,12.1,29.75,SW,228,9.0,9.0,12,0.00,,,0.00,Wunderground v.1.15,2013-04-22 21:02:00,
2013-04-22 15:06:00,66.4,12.2,29.75,NW,313,7.0,9.0,12,0.00,,,0.00,Wunderground v.1.15,2013-04-22 21:06:00,
2013-04-22 15:08:00,66.4,12.2,29.75,North,350,6.0,9.0,12,0.00,,,0.00,Wunderground v.1.15,2013-04-22 21:08:00,
2013-04-22 15:10:00,66.3,12.1,29.75,West,279,6.0,6.0,12,0.00,,,0.00,Wunderground v.1.15,2013-04-22 21:10:00,
2013-04-22 15:14:00,66.8,14.3,29.75,SW,233,5.0,11.0,13,0.00,,,0.00,Wunderground v.1.15,2013-04-22 21:14:00,
2013-04-22 15:16:00,66.9,14.4,29.73,NW,306,5.0,11.0,13,0.00,,,0.00,Wunderground v.1.15,2013-04-22 21:16:00,
2013-04-22 15:20:00,67.4,13.0,29.73,NW,321,3.0,4.0,12,0.00,,,0.00,Wunderground v.1.15,2013-04-22 21:20:00,
2013-04-22 15:24:00,66.9,14.4,29.73,NNW,334,6.0,11.0,13,0.00,,,0.00,Wunderground v.1.15,2013-04-22 21:24:00,
2013-04-22 15:26:00,66.8,14.3,29.73,NW,314,6.0,11.0,13,0.00,,,0.00,Wunderground v.1.15,2013-04-22 21:26:00,
2013-04-22 15:30:00,66.3,13.9,29.73,NW,317,8.0,8.0,13,0.00,,,0.00,Wunderground v.1.15,2013-04-22 21:30:00,
2013-04-22 15:32:00,66.3,13.9,29.72,NNW,328,7.0,8.0,13,0.00,,,0.00,Wunderground v.1.15,2013-04-22 21:32:00,
2013-04-22 15:34:00,66.3,13.9,29.72,WSW,251,7.0,8.0,13,0.00,,,0.00,Wunderground v.1.15,2013-04-22 21:34:00,
2013-04-22 15:36:00,66.8,12.5,29.72,West,259,6.0,8.0,12,0.00,,,0.00,Wunderground v.1.15,2013-04-22 21:36:00,
2013-04-22 15:40:00,66.9,12.6,29.72,North,355,6.0,7.0,12,0.00,,,0.00,Wunderground v.1.15,2013-04-22 21:40:00,
2013-04-22 15:42:00,66.6,14.2,29.72,NW,316,6.0,7.0,13,0.00,,,0.00,Wunderground v.1.15,2013-04-22 21:42:00,
2013-04-22 15:46:00,66.6,12.3,29.71,NW,304,6.0,12.0,12,0.00,,,0.00,Wunderground v.1.15,2013-04-22 21:46:00,
2013-04-22 15:48:00,66.3,12.1,29.71,NNW,338,7.0,12.0,12,0.00,,,0.00,Wunderground v.1.15,2013-04-22 21:48:00,
2013-04-22 15:50:00,66.1,11.9,29.71,NW,304,6.0,6.0,12,0.00,,,0.00,Wunderground v.1.15,2013-04-22 21:50:00,
2013-04-22 15:54:00,66.0,13.7,29.71,NNW,334,5.0,6.0,13,0.00,,,0.00,Wunderground v.1.15,2013-04-22 21:54:00,
2013-04-22 15:56:00,66.4,14.0,29.71,North,11,4.0,6.0,13,0.00,,,0.00,Wunderground v.1.15,2013-04-22 21:56:00,
2013-04-22 15:58:00,66.8,14.3,29.71,NNW,342,3.0,6.0,13,0.00,,,0.00,Wunderground v.1.15,2013-04-22 21:58:00,
2013-04-22 16:02:00,67.3,14.7,29.70,NNW,336,3.0,7.0,13,0.00,,,0.00,Wunderground v.1.15,2013-04-22 22:02:00,
2013-04-22 16:04:00,67.1,12.7,29.70,NNW,331,4.0,7.0,12,0.00,,,0.00,Wunderground v.1.15,2013-04-22 22:04:00,
2013-04-22 16:08:00,66.0,13.7,29.70,NW,324,5.0,7.0,13,0.00,,,0.00,Wunderground v.1.15,2013-04-22 22:08:00,
2013-04-22 16:12:00,65.5,13.3,29.70,NW,318,6.0,12.0,13,0.00,,,0.00,Wunderground v.1.15,2013-04-22 22:12:00,
2013-04-22 16:14:00,65.2,13.0,29.70,NE,52,6.0,12.0,13,0.00,,,0.00,Wunderground v.1.15,2013-04-22 22:14:00,
2013-04-22 16:16:00,65.2,13.0,29.70,NNW,344,5.0,12.0,13,0.00,,,0.00,Wunderground v.1.15,2013-04-22 22:16:00,
2013-04-22 16:18:00,65.2,14.7,29.70,NW,321,4.0,12.0,14,0.00,,,0.00,Wunderground v.1.15,2013-04-22 22:18:00,
2013-04-22 16:20:00,65.2,13.0,29.70,NNW,337,5.0,11.0,13,0.00,,,0.00,Wunderground v.1.15,2013-04-22 22:20:00,
2013-04-22 16:22:00,65.2,13.0,29.70,NE,35,5.0,11.0,13,0.00,,,0.00,Wunderground v.1.15,2013-04-22 22:22:00,
2013-04-22 16:26:00,65.2,14.7,29.70,WNW,296,6.0,12.0,14,0.00,,,0.00,Wunderground v.1.15,2013-04-22 22:26:00,
2013-04-22 16:28:00,65.0,12.9,29.70,NNW,336,7.0,12.0,13,0.00,,,0.00,Wunderground v.1.15,2013-04-22 22:28:00,
2013-04-22 16:30:00,64.8,14.4,29.70,NW,320,7.0,7.0,14,0.00,,,0.00,Wunderground v.1.15,2013-04-22 22:30:00,
2013-04-22 16:34:00,64.5,14.2,29.69,NNW,339,6.0,7.0,14,0.00,,,0.00,Wunderground v.1.15,2013-04-22 22:34:00,
2013-04-22 16:36:00,64.5,14.2,29.69,NNW,327,6.0,7.0,14,0.00,,,0.00,Wunderground v.1.15,2013-04-22 22:36:00,
2013-04-22 16:42:00,64.2,13.9,29.69,NNE,13,7.0,11.0,14,0.00,,,0.00,Wunderground v.1.15,2013-04-22 22:42:00,
2013-04-22 16:46:00,64.0,13.8,29.70,NNW,337,7.0,11.0,14,0.00,,,0.00,Wunderground v.1.15,2013-04-22 22:46:00,
2013-04-22 16:48:00,64.2,13.9,29.70,NNE,15,7.0,11.0,14,0.00,,,0.00,Wunderground v.1.15,2013-04-22 22:48:00,
2013-04-22 16:52:00,64.2,15.5,29.70,North,355,6.0,6.0,15,0.00,,,0.00,Wunderground v.1.15,2013-04-22 22:52:00,
2013-04-22 16:56:00,64.2,15.5,29.70,NNW,327,4.0,6.0,15,0.00,,,0.00,Wunderground v.1.15,2013-04-22 22:56:00,
2013-04-22 16:58:00,64.2,13.9,29.70,North,5,4.0,9.0,14,0.00,,,0.00,Wunderground v.1.15,2013-04-22 22:58:00,
2013-04-22 17:00:00,64.2,15.5,29.69,North,5,4.0,11.0,15,0.00,,,0.00,Wunderground v.1.15,2013-04-22 23:00:00,
2013-04-22 17:02:00,64.2,13.9,29.69,NNW,339,4.0,11.0,14,0.00,,,0.00,Wunderground v.1.15,2013-04-22 23:02:00,
2013-04-22 17:06:00,64.5,14.2,29.69,North,9,5.0,11.0,14,0.00,,,0.00,Wunderground v.1.15,2013-04-22 23:06:00,
2013-04-22 17:10:00,64.8,16.0,29.69,NNW,348,6.0,14.0,15,0.00,,,0.00,Wunderground v.1.15,2013-04-22 23:10:00,
2013-04-22 17:12:00,64.8,16.0,29.69,NNE,12,6.0,14.0,15,0.00,,,0.00,Wunderground v.1.15,2013-04-22 23:12:00,
2013-04-22 17:18:00,64.5,14.2,29.69,NNE,12,6.0,14.0,14,0.00,,,0.00,Wunderground v.1.15,2013-04-22 23:18:00,
2013-04-22 17:20:00,64.5,15.8,29.69,NNE,27,6.0,6.0,15,0.00,,,0.00,Wunderground v.1.15,2013-04-22 23:20:00,
2013-04-22 17:22:00,64.5,15.8,29.69,North,355,5.0,6.0,15,0.00,,,0.00,Wunderground v.1.15,2013-04-22 23:22:00,
2013-04-22 17:24:00,64.8,17.5,29.69,North,32767,5.0,6.0,16,0.00,,,0.00,Wunderground v.1.15,2013-04-22 23:24:00,
2013-04-22 17:26:00,65.3,16.4,29.69,NNE,22,5.0,6.0,15,0.00,,,0.00,Wunderground v.1.15,2013-04-22 23:26:00,
2013-04-22 17:28:00,65.8,16.8,29.69,NNW,345,4.0,6.0,15,0.00,,,0.00,Wunderground v.1.15,2013-04-22 23:28:00,
2013-04-22 17:30:00,66.1,15.5,29.69,NE,53,4.0,4.0,14,0.00,,,0.00,Wunderground v.1.15,2013-04-22 23:30:00,
2013-04-22 17:32:00,66.1,15.5,29.68,NE,44,3.0,4.0,14,0.00,,,0.00,Wunderground v.1.15,2013-04-22 23:32:00,
2013-04-22 17:34:00,66.3,15.6,29.68,NNE,31,3.0,4.0,14,0.00,,,0.00,Wunderground v.1.15,2013-04-22 23:34:00,
2013-04-22 17:36:00,66.3,15.6,29.68,NNE,17,3.0,4.0,14,0.00,,,0.00,Wunderground v.1.15,2013-04-22 23:36:00,
2013-04-22 17:38:00,66.3,17.2,29.68,NE,53,3.0,4.0,15,0.00,,,0.00,Wunderground v.1.15,2013-04-22 23:38:00,
2013-04-22 17:40:00,66.1,15.5,29.68,North,5,3.0,7.0,14,0.00,,,0.00,Wunderground v.1.15,2013-04-22 23:40:00,
2013-04-22 17:42:00,66.1,17.0,29.68,NW,315,3.0,7.0,15,0.00,,,0.00,Wunderground v.1.15,2013-04-22 23:42:00,
2013-04-22 17:44:00,66.1,15.5,29.68,NW,305,3.0,7.0,14,0.00,,,0.00,Wunderground v.1.15,2013-04-22 23:44:00,
2013-04-22 17:50:00,66.6,14.2,29.68,SW,236,2.0,2.0,13,0.00,,,0.00,Wunderground v.1.15,2013-04-22 23:50:00,
2013-04-22 17:56:00,68.1,13.5,29.68,West,269,4.0,11.0,12,0.00,,,0.00,Wunderground v.1.15,2013-04-22 23:56:00,
2013-04-22 17:58:00,68.3,13.7,29.68,NNW,339,4.0,11.0,12,0.00,,,0.00,Wunderground v.1.15,2013-04-22 23:58:00,
2013-04-22 18:00:00,68.3,13.7,29.68,SW,236,4.0,4.0,12,0.00,,,0.00,Wunderground v.1.15,2013-04-23 00:00:00,
2013-04-22 18:06:00,68.3,11.7,29.67,NW,320,4.0,5.0,11,0.00,,,0.00,Wunderground v.1.15,2013-04-23 00:06:00,
2013-04-22 18:08:00,68.4,13.7,29.67,WNW,296,3.0,9.0,12,0.00,,,0.00,Wunderground v.1.15,2013-04-23 00:08:00,
2013-04-22 18:10:00,68.3,13.7,29.67,NW,306,3.0,3.0,12,0.00,,,0.00,Wunderground v.1.15,2013-04-23 00:10:00,
2013-04-22 18:12:00,68.1,13.5,29.67,West,269,3.0,10.0,12,0.00,,,0.00,Wunderground v.1.15,2013-04-23 00:12:00,
2013-04-22 18:14:00,67.8,13.3,29.67,West,263,4.0,10.0,12,0.00,,,0.00,Wunderground v.1.15,2013-04-23 00:14:00,
2013-04-22 18:16:00,67.8,13.3,29.66,WNW,302,4.0,10.0,12,0.00,,,0.00,Wunderground v.1.15,2013-04-23 00:16:00,
2013-04-22 18:18:00,67.6,14.9,29.66,WNW,297,5.0,11.0,13,0.00,,,0.00,Wunderground v.1.15,2013-04-23 00:18:00,
2013-04-22 18:22:00,67.3,12.9,29.66,NNW,343,7.0,13.0,12,0.00,,,0.00,Wunderground v.1.15,2013-04-23 00:22:00,
2013-04-22 18:24:00,66.8,14.3,29.66,NNW,331,8.0,13.0,13,0.00,,,0.00,Wunderground v.1.15,2013-04-23 00:24:00,
2013-04-22 18:26:00,66.1,15.5,29.66,NNW,329,9.0,13.0,14,0.00,,,0.00,Wunderground v.1.15,2013-04-23 00:26:00,
2013-04-22 18:28:00,65.8,16.8,29.66,NNW,344,9.0,13.0,15,0.00,,,0.00,Wunderground v.1.15,2013-04-23 00:28:00,
2013-04-22 18:31:00,65.3,16.4,29.69,NW,317,8.0,8.0,15,0.00,,,0.00,Wunderground v.1.15,2013-04-23 00:31:00,
2013-04-22 18:34:00,64.7,15.9,29.69,NNW,333,8.0,12.0,15,0.00,,,0.00,Wunderground v.1.15,2013-04-23 00:34:00,
2013-04-22 18:36:00,64.3,17.1,29.69,North,32767,8.0,12.0,16,0.00,,,0.00,Wunderground v.1.15,2013-04-23 00:36:00,
2013-04-22 18:38:00,64.2,17.0,29.69,NW,325,8.0,12.0,16,0.00,,,0.00,Wunderground v.1.15,2013-04-23 00:38:00,
2013-04-22 18:40:00,63.9,16.8,29.69,NNE,17,8.0,8.0,16,0.00,,,0.00,Wunderground v.1.15,2013-04-23 00:40:00,
2013-04-22 18:42:00,63.5,16.4,29.69,NW,316,8.0,9.0,16,0.00,,,0.00,Wunderground v.1.15,2013-04-23 00:42:00,
2013-04-22 18:44:00,63.2,17.6,29.69,North,32767,8.0,9.0,17,0.00,,,0.00,Wunderground v.1.15,2013-04-23 00:44:00,
2013-04-22 18:48:00,62.7,17.2,29.70,NW,315,10.0,11.0,17,0.00,,,0.00,Wunderground v.1.15,2013-04-23 00:48:00,
2013-04-22 18:50:00,62.4,17.0,29.70,NNW,347,10.0,11.0,17,0.00,,,0.00,Wunderground v.1.15,2013-04-23 00:50:00,
2013-04-22 18:52:00,62.4,18.3,29.70,NNW,340,9.0,11.0,18,0.00,,,0.00,Wunderground v.1.15,2013-04-23 00:52:00,
2013-04-22 18:54:00,62.3,18.2,29.70,WNW,303,9.0,12.0,18,0.00,,,0.00,Wunderground v.1.15,2013-04-23 00:54:00,
2013-04-22 18:56:00,62.0,18.0,29.70,NW,323,9.0,18.0,18,0.00,,,0.00,Wunderground v.1.15,2013-04-23 00:56:00,
2013-04-22 19:00:00,61.3,17.4,29.72,NNW,339,9.0,9.0,18,0.00,,,0.00,Wunderground v.1.15,2013-04-23 01:00:00,
2013-04-22 19:02:00,61.2,18.6,29.72,NW,322,9.0,12.0,19,0.00,,,0.00,Wunderground v.1.15,2013-04-23 01:02:00,
2013-04-22 19:04:00,60.9,18.3,29.72,NNW,327,11.0,12.0,19,0.00,,,0.00,Wunderground v.1.15,2013-04-23 01:04:00,
2013-04-22 19:06:00,60.7,18.1,29.72,WNW,296,11.0,16.0,19,0.00,,,0.00,Wunderground v.1.15,2013-04-23 01:06:00,
2013-04-22 19:12:00,59.9,18.7,29.72,WNW,295,12.0,15.0,20,0.00,,,0.00,Wunderground v.1.15,2013-04-23 01:12:00,
2013-04-22 19:14:00,59.8,18.6,29.72,NNW,331,12.0,20.0,20,0.00,,,0.00,Wunderground v.1.15,2013-04-23 01:14:00,
2013-04-22 19:20:00,59.0,20.2,29.74,NW,316,13.0,15.0,22,0.00,,,0.00,Wunderground v.1.15,2013-04-23 01:20:00,
2013-04-22 19:22:00,58.7,19.9,29.74,NNW,337,14.0,15.0,22,0.00,,,0.00,Wunderground v.1.15,2013-04-23 01:22:00,
2013-04-22 19:26:00,58.4,20.7,29.74,NNW,340,14.0,22.0,23,0.00,,,0.00,Wunderground v.1.15,2013-04-23 01:26:00,
2013-04-22 19:28:00,58.3,20.6,29.74,WNW,299,14.0,22.0,23,0.00,,,0.00,Wunderground v.1.15,2013-04-23 01:28:00,
2013-04-22 19:32:00,57.8,21.2,29.76,NNW,333,14.0,15.0,24,0.00,,,0.00,Wunderground v.1.15,2013-04-23 01:32:00,
2013-04-22 19:34:00,57.6,21.0,29.76,NNW,346,13.0,15.0,24,0.00,,,0.00,Wunderground v.1.15,2013-04-23 01:34:00,
2013-04-22 19:36:00,57.5,20.9,29.76,NNW,348,13.0,17.0,24,0.00,,,0.00,Wunderground v.1.15,2013-04-23 01:36:00,
2013-04-22 19:42:00,56.7,21.2,29.76,NW,325,13.0,20.0,25,0.00,,,0.00,Wunderground v.1.15,2013-04-23 01:42:00,
2013-04-22 19:44:00,56.6,21.1,29.76,WNW,288,14.0,20.0,25,0.00,,,0.00,Wunderground v.1.15,2013-04-23 01:44:00,
2013-04-22 19:50:00,56.2,20.8,29.78,NW,314,13.0,13.0,25,0.00,,,0.00,Wunderground v.1.15,2013-04-23 01:50:00,
2013-04-22 19:52:00,56.2,20.8,29.78,West,276,12.0,13.0,25,0.00,,,0.00,Wunderground v.1.15,2013-04-23 01:52:00,
2013-04-22 19:56:00,56.0,20.6,29.78,NW,309,12.0,13.0,25,0.00,,,0.00,Wunderground v.1.15,2013-04-23 01:56:00,
2013-04-22 19:58:00,55.9,20.5,29.78,WNW,289,12.0,13.0,25,0.00,,,0.00,Wunderground v.1.15,2013-04-23 01:58:00,
2013-04-22 20:00:00,55.9,20.5,29.78,WNW,302,11.0,11.0,25,0.00,,,0.00,Wunderground v.1.15,2013-04-23 02:00:00,
2013-04-22 20:04:00,55.7,21.3,29.78,NW,304,10.0,12.0,26,0.00,,,0.00,Wunderground v.1.15,2013-04-23 02:04:00,
2013-04-22 20:10:00,55.3,21.8,29.78,NW,319,8.0,13.0,27,0.00,,,0.00,Wunderground v.1.15,2013-04-23 02:10:00,
2013-04-22 20:12:00,55.1,21.7,29.78,NW,309,9.0,13.0,27,0.00,,,0.00,Wunderground v.1.15,2013-04-23 02:12:00,
2013-04-22 20:16:00,55.0,21.6,29.76,North,355,9.0,13.0,27,0.00,,,0.00,Wunderground v.1.15,2013-04-23 02:16:00,
2013-04-22 20:18:00,55.0,21.6,29.76,WNW,298,9.0,13.0,27,0.00,,,0.00,Wunderground v.1.15,2013-04-23 02:18:00,
2013-04-22 20:22:00,54.8,21.4,29.76,West,277,9.0,10.0,27,0.00,,,0.00,Wunderground v.1.15,2013-04-23 02:22:00,
2013-04-22 20:24:00,54.8,21.4,29.76,NW,308,8.0,10.0,27,0.00,,,0.00,Wunderground v.1.15,2013-04-23 02:24:00,
2013-04-22 20:26:00,54.7,21.3,29.76,NW,309,7.0,10.0,27,0.00,,,0.00,Wunderground v.1.15,2013-04-23 02:26:00,
2013-04-22 20:28:00,54.7,22.2,29.76,WNW,298,7.0,10.0,28,0.00,,,0.00,Wunderground v.1.15,2013-04-23 02:28:00,
2013-04-22 20:34:00,54.5,22.0,29.77,WNW,296,7.0,7.0,28,0.00,,,0.00,Wunderground v.1.15,2013-04-23 02:34:00,
2013-04-22 20:38:00,54.5,22.0,29.77,NW,313,8.0,11.0,28,0.00,,,0.00,Wunderground v.1.15,2013-04-23 02:38:00,
2013-04-22 20:40:00,54.5,22.0,29.77,WNW,292,7.0,7.0,28,0.00,,,0.00,Wunderground v.1.15,2013-04-23 02:40:00,
2013-04-22 20:42:00,54.4,21.1,29.77,WSW,244,7.0,7.0,27,0.00,,,0.00,Wunderground v.1.15,2013-04-23 02:42:00,
2013-04-22 20:44:00,54.4,21.1,29.77,NW,308,6.0,13.0,27,0.00,,,0.00,Wunderground v.1.15,2013-04-23 02:44:00,
2013-04-22 20:48:00,54.2,20.9,29.80,WNW,290,4.0,13.0,27,0.00,,,0.00,Wunderground v.1.15,2013-04-23 02:48:00,
2013-04-22 20:50:00,54.2,20.9,29.80,NW,317,4.0,4.0,27,0.00,,,0.00,Wunderground v.1.15,2013-04-23 02:50:00,
2013-04-22 20:54:00,54.1,20.8,29.80,NW,312,4.0,9.0,27,0.00,,,0.00,Wunderground v.1.15,2013-04-23 02:54:00,
2013-04-22 20:56:00,54.1,20.8,29.80,WNW,294,5.0,9.0,27,0.00,,,0.00,Wunderground v.1.15,2013-04-23 02:56:00,
2013-04-22 20:58:00,54.1,21.7,29.80,NNW,338,5.0,9.0,28,0.00,,,0.00,Wunderground v.1.15,2013-04-23 02:58:00,
2013-04-22 21:02:00,53.9,21.5,29.81,North,5,4.0,4.0,28,0.00,,,0.00,Wunderground v.1.15,2013-04-23 03:02:00,
2013-04-22 21:04:00,53.9,21.5,29.81,NW,310,3.0,4.0,28,0.00,,,0.00,Wunderground v.1.15,2013-04-23 03:04:00,
2013-04-22 21:10:00,53.8,21.4,29.81,WNW,300,1.0,1.0,28,0.00,,,0.00,Wunderground v.1.15,2013-04-23 03:10:00,
2013-04-22 21:14:00,53.6,21.2,29.81,WNW,303,2.0,5.0,28,0.00,,,0.00,Wunderground v.1.15,2013-04-23 03:14:00,
2013-04-22 21:18:00,53.5,22.0,29.79,NW,319,2.0,5.0,29,0.00,,,0.00,Wunderground v.1.15,2013-04-23 03:18:00,
2013-04-22 21:20:00,53.5,21.2,29.79,WNW,288,3.0,3.0,28,0.00,,,0.00,Wunderground v.1.15,2013-04-23 03:20:00,
2013-04-22 21:22:00,53.5,21.2,29.79,NW,309,3.0,9.0,28,0.00,,,0.00,Wunderground v.1.15,2013-04-23 03:22:00,
2013-04-22 21:24:00,53.5,21.2,29.79,NW,306,3.0,9.0,28,0.00,,,0.00,Wunderground v.1.15,2013-04-23 03:24:00,
2013-04-22 21:26:00,53.5,21.2,29.79,South,188,3.0,9.0,28,0.00,,,0.00,Wunderground v.1.15,2013-04-23 03:26:00,
2013-04-22 21:28:00,53.3,21.0,29.79,WNW,286,3.0,9.0,28,0.00,,,0.00,Wunderground v.1.15,2013-04-23 03:28:00,
2013-04-22 21:32:00,53.3,21.0,29.81,WNW,292,2.0,2.0,28,0.00,,,0.00,Wunderground v.1.15,2013-04-23 03:32:00,
2013-04-22 21:36:00,53.2,20.9,29.81,NW,314,1.0,10.0,28,0.00,,,0.00,Wunderground v.1.15,2013-04-23 03:36:00,
2013-04-22 21:38:00,53.2,20.9,29.81,WNW,299,2.0,10.0,28,0.00,,,0.00,Wunderground v.1.15,2013-04-23 03:38:00,
2013-04-22 21:42:00,53.1,20.8,29.81,WNW,290,2.0,3.0,28,0.00,,,0.00,Wunderground v.1.15,2013-04-23 03:42:00,
2013-04-22 21:44:00,53.1,20.8,29.81,WNW,292,2.0,3.0,28,0.00,,,0.00,Wunderground v.1.15,2013-04-23 03:44:00,
2013-04-22 21:46:00,53.1,20.8,29.82,WNW,292,2.0,7.0,28,0.00,,,0.00,Wunderground v.1.15,2013-04-23 03:46:00,
2013-04-22 21:48:00,52.9,20.6,29.82,WNW,302,1.0,10.0,28,0.00,,,0.00,Wunderground v.1.15,2013-04-23 03:48:00,
2013-04-22 21:50:00,52.9,21.5,29.82,WNW,286,2.0,2.0,29,0.00,,,0.00,Wunderground v.1.15,2013-04-23 03:50:00,
2013-04-22 21:54:00,52.8,21.4,29.82,SW,234,1.0,2.0,29,0.00,,,0.00,Wunderground v.1.15,2013-04-23 03:54:00,
2013-04-22 21:56:00,52.8,21.4,29.82,WSW,242,2.0,2.0,29,0.00,,,0.00,Wunderground v.1.15,2013-04-23 03:56:00,
2013-04-22 21:58:00,52.6,20.4,29.82,WSW,238,1.0,2.0,28,0.00,,,0.00,Wunderground v.1.15,2013-04-23 03:58:00,
2013-04-22 22:02:00,52.6,20.4,29.83,WSW,238,1.0,1.0,28,0.00,,,0.00,Wunderground v.1.15,2013-04-23 04:02:00,
2013-04-22 22:04:00,52.6,21.2,29.83,WSW,238,1.0,1.0,29,0.00,,,0.00,Wunderground v.1.15,2013-04-23 04:04:00,
2013-04-22 22:06:00,52.5,21.1,29.83,WSW,238,1.0,1.0,29,0.00,,,0.00,Wunderground v.1.15,2013-04-23 04:06:00,
2013-04-22 22:08:00,52.5,21.1,29.83,WSW,238,1.0,1.0,29,0.00,,,0.00,Wunderground v.1.15,2013-04-23 04:08:00,
2013-04-22 22:10:00,52.3,20.9,29.83,WSW,238,1.0,1.0,29,0.00,,,0.00,Wunderground v.1.15,2013-04-23 04:10:00,
2013-04-22 22:12:00,52.3,20.9,29.83,WSW,238,0.0,1.0,29,0.00,,,0.00,Wunderground v.1.15,2013-04-23 04:12:00,
2013-04-22 22:18:00,52.0,20.7,29.83,WNW,284,1.0,3.0,29,0.00,,,0.00,Wunderground v.1.15,2013-04-23 04:18:00,
2013-04-22 22:20:00,52.0,20.7,29.83,WNW,284,1.0,1.0,29,0.00,,,0.00,Wunderground v.1.15,2013-04-23 04:20:00,
2013-04-22 22:22:00,52.0,20.7,29.83,WNW,284,1.0,1.0,29,0.00,,,0.00,Wunderground v.1.15,2013-04-23 04:22:00,
2013-04-22 22:26:00,51.7,21.2,29.83,SW,225,0.0,1.0,30,0.00,,,0.00,Wunderground v.1.15,2013-04-23 04:26:00,
2013-04-22 22:28:00,51.7,21.2,29.83,SW,225,0.0,1.0,30,0.00,,,0.00,Wunderground v.1.15,2013-04-23 04:28:00,
2013-04-22 22:30:00,51.6,20.3,29.83,SW,234,1.0,1.0,29,0.00,,,0.00,Wunderground v.1.15,2013-04-23 04:30:00,
2013-04-22 22:34:00,51.6,20.3,29.84,SW,233,1.0,2.0,29,0.00,,,0.00,Wunderground v.1.15,2013-04-23 04:34:00,
2013-04-22 22:36:00,51.6,20.3,29.84,SW,236,1.0,2.0,29,0.00,,,0.00,Wunderground v.1.15,2013-04-23 04:36:00,
2013-04-22 22:38:00,51.6,20.3,29.84,SW,236,1.0,2.0,29,0.00,,,0.00,Wunderground v.1.15,2013-04-23 04:38:00,
2013-04-22 22:40:00,51.4,21.0,29.84,SW,236,1.0,2.0,30,0.00,,,0.00,Wunderground v.1.15,2013-04-23 04:40:00,
2013-04-22 22:42:00,51.4,21.0,29.84,WSW,244,1.0,6.0,30,0.00,,,0.00,Wunderground v.1.15,2013-04-23 04:42:00,
2013-04-22 22:48:00,51.1,20.7,29.84,SW,228,1.0,6.0,30,0.00,,,0.00,Wunderground v.1.15,2013-04-23 04:48:00,
2013-04-22 22:50:00,51.1,20.7,29.84,SW,228,1.0,1.0,30,0.00,,,0.00,Wunderground v.1.15,2013-04-23 04:50:00,
2013-04-22 22:54:00,51.0,20.6,29.84,WNW,290,1.0,1.0,30,0.00,,,0.00,Wunderground v.1.15,2013-04-23 04:54:00,
2013-04-22 22:56:00,51.0,19.8,29.84,WNW,300,1.0,5.0,29,0.00,,,0.00,Wunderground v.1.15,2013-04-23 04:56:00,
2013-04-22 23:00:00,50.8,18.8,29.84,NW,313,2.0,13.0,28,0.00,,,0.00,Wunderground v.1.15,2013-04-23 05:00:00,
2013-04-22 23:02:00,50.8,18.8,29.85,WNW,293,3.0,13.0,28,0.00,,,0.00,Wunderground v.1.15,2013-04-23 05:02:00,
2013-04-22 23:04:00,50.8,18.8,29.85,NW,305,4.0,13.0,28,0.00,,,0.00,Wunderground v.1.15,2013-04-23 05:04:00,
2013-04-22 23:08:00,50.8,19.6,29.85,WNW,294,4.0,13.0,29,0.00,,,0.00,Wunderground v.1.15,2013-04-23 05:08:00,
2013-04-22 23:12:00,50.5,20.2,29.85,WNW,290,4.0,7.0,30,0.00,,,0.00,Wunderground v.1.15,2013-04-23 05:12:00,
2013-04-22 23:14:00,50.5,19.4,29.85,West,272,4.0,7.0,29,0.00,,,0.00,Wunderground v.1.15,2013-04-23 05:14:00,
2013-04-22 23:18:00,50.2,19.9,29.85,WNW,289,3.0,9.0,30,0.00,,,0.00,Wunderground v.1.15,2013-04-23 05:18:00,
2013-04-22 23:20:00,50.1,20.6,29.85,NW,321,3.0,4.0,31,0.00,,,0.00,Wunderground v.1.15,2013-04-23 05:20:00,
2013-04-22 23:22:00,49.9,21.2,29.85,NNW,339,3.0,6.0,32,0.00,,,0.00,Wunderground v.1.15,2013-04-23 05:22:00,
2013-04-22 23:24:00,49.8,21.1,29.85,West,266,4.0,6.0,32,0.00,,,0.00,Wunderground v.1.15,2013-04-23 05:24:00,
2013-04-22 23:26:00,49.6,22.3,29.85,NW,304,5.0,6.0,34,0.00,,,0.00,Wunderground v.1.15,2013-04-23 05:26:00,
2013-04-22 23:30:00,49.2,22.0,29.85,NW,304,5.0,5.0,34,0.00,,,0.00,Wunderground v.1.15,2013-04-23 05:30:00,
2013-04-22 23:32:00,49.1,21.9,29.86,West,267,6.0,6.0,34,0.00,,,0.00,Wunderground v.1.15,2013-04-23 05:32:00,
2013-04-22 23:34:00,49.1,21.9,29.86,West,280,5.0,6.0,34,0.00,,,0.00,Wunderground v.1.15,2013-04-23 05:34:00,
2013-04-22 23:36:00,48.9,22.4,29.86,NW,325,4.0,6.0,35,0.00,,,0.00,Wunderground v.1.15,2013-04-23 05:36:00,
2013-04-22 23:38:00,48.8,22.3,29.86,SW,236,4.0,6.0,35,0.00,,,0.00,Wunderground v.1.15,2013-04-23 05:38:00,
2013-04-22 23:42:00,48.6,22.8,29.86,NW,326,4.0,5.0,36,0.00,,,0.00,Wunderground v.1.15,2013-04-23 05:42:00,
2013-04-22 23:44:00,48.5,22.7,29.86,WNW,292,5.0,8.0,36,0.00,,,0.00,Wunderground v.1.15,2013-04-23 05:44:00,
2013-04-22 23:46:00,48.3,23.2,29.86,West,267,5.0,8.0,37,0.00,,,0.00,Wunderground v.1.15,2013-04-23 05:46:00,
2013-04-22 23:50:00,48.0,24.2,29.86,West,265,5.0,11.0,39,0.00,,,0.00,Wunderground v.1.15,2013-04-23 05:50:00,
2013-04-22 23:52:00,47.7,23.9,29.86,WSW,254,5.0,16.0,39,0.00,,,0.00,Wunderground v.1.15,2013-04-23 05:52:00,
2013-04-22 23:56:00,47.1,24.6,29.86,NW,305,6.0,16.0,41,0.00,,,0.00,Wunderground v.1.15,2013-04-23 05:56:00,
2013-04-22 23:58:00,46.8,24.9,29.86,SW,234,6.0,16.0,42,0.00,,,0.00,Wunderground v.1.15,2013-04-23 05:58:00,